sensor_id;sensor_type;location;lat;lon;timestamp;P1;durP1;ratioP1;P2;durP2;ratioP2
19189;SDS011;9727;50.200;19.038;2023-11-22T00:00:38;29.33;;;16.63;;
19189;SDS011;9727;50.200;19.038;2023-11-22T00:03:05;27.47;;;16.47;;
19189;SDS011;9727;50.200;19.038;2023-11-22T00:05:31;30.20;;;18.37;;
19189;SDS011;9727;50.200;19.038;2023-11-22T00:07:58;29.67;;;17.90;;
19189;SDS011;9727;50.200;19.038;2023-11-22T00:10:24;28.03;;;17.17;;
19189;SDS011;9727;50.200;19.038;2023-11-22T00:12:55;31.73;;;18.30;;
19189;SDS011;9727;50.200;19.038;2023-11-22T00:15:23;34.27;;;18.37;;
19189;SDS011;9727;50.200;19.038;2023-11-22T00:17:51;31.70;;;19.53;;
19189;SDS011;9727;50.200;19.038;2023-11-22T00:20:21;31.70;;;18.43;;
19189;SDS011;9727;50.200;19.038;2023-11-22T00:22:47;34.23;;;19.87;;
19189;SDS011;9727;50.200;19.038;2023-11-22T00:25:16;38.33;;;20.33;;
19189;SDS011;9727;50.200;19.038;2023-11-22T00:27:45;33.90;;;19.70;;
19189;SDS011;9727;50.200;19.038;2023-11-22T00:30:20;33.97;;;18.27;;
19189;SDS011;9727;50.200;19.038;2023-11-22T00:32:48;30.57;;;18.47;;
19189;SDS011;9727;50.200;19.038;2023-11-22T00:35:17;32.07;;;18.77;;
19189;SDS011;9727;50.200;19.038;2023-11-22T00:37:44;29.07;;;17.40;;
19189;SDS011;9727;50.200;19.038;2023-11-22T00:40:11;30.13;;;17.07;;
19189;SDS011;9727;50.200;19.038;2023-11-22T00:42:38;31.77;;;18.20;;
19189;SDS011;9727;50.200;19.038;2023-11-22T00:45:07;29.87;;;17.53;;
19189;SDS011;9727;50.200;19.038;2023-11-22T00:47:36;29.77;;;17.87;;
19189;SDS011;9727;50.200;19.038;2023-11-22T00:50:04;32.33;;;19.07;;
19189;SDS011;9727;50.200;19.038;2023-11-22T00:52:31;32.57;;;17.87;;
19189;SDS011;9727;50.200;19.038;2023-11-22T00:54:57;29.67;;;18.03;;
19189;SDS011;9727;50.200;19.038;2023-11-22T00:57:25;32.30;;;18.70;;
19189;SDS011;9727;50.200;19.038;2023-11-22T00:59:52;31.47;;;18.60;;
19189;SDS011;9727;50.200;19.038;2023-11-22T01:02:19;34.33;;;18.70;;
19189;SDS011;9727;50.200;19.038;2023-11-22T01:04:47;32.67;;;18.23;;
19189;SDS011;9727;50.200;19.038;2023-11-22T01:07:13;32.53;;;19.33;;
19189;SDS011;9727;50.200;19.038;2023-11-22T01:09:41;33.87;;;18.90;;
19189;SDS011;9727;50.200;19.038;2023-11-22T01:12:08;32.50;;;18.27;;
19189;SDS011;9727;50.200;19.038;2023-11-22T01:14:35;32.33;;;18.80;;
19189;SDS011;9727;50.200;19.038;2023-11-22T01:17:01;29.67;;;17.93;;
19189;SDS011;9727;50.200;19.038;2023-11-22T01:19:28;29.23;;;17.83;;
19189;SDS011;9727;50.200;19.038;2023-11-22T01:21:56;28.77;;;17.57;;
19189;SDS011;9727;50.200;19.038;2023-11-22T01:24:22;29.63;;;17.27;;
19189;SDS011;9727;50.200;19.038;2023-11-22T01:26:51;29.00;;;17.40;;
19189;SDS011;9727;50.200;19.038;2023-11-22T01:29:18;33.87;;;18.47;;
19189;SDS011;9727;50.200;19.038;2023-11-22T01:31:44;30.73;;;18.73;;
19189;SDS011;9727;50.200;19.038;2023-11-22T01:34:12;35.17;;;18.97;;
19189;SDS011;9727;50.200;19.038;2023-11-22T01:36:41;34.00;;;19.27;;
19189;SDS011;9727;50.200;19.038;2023-11-22T01:39:10;34.50;;;18.83;;
19189;SDS011;9727;50.200;19.038;2023-11-22T01:41:37;35.47;;;19.53;;
19189;SDS011;9727;50.200;19.038;2023-11-22T01:44:04;33.47;;;18.83;;
19189;SDS011;9727;50.200;19.038;2023-11-22T01:46:30;32.37;;;18.60;;
19189;SDS011;9727;50.200;19.038;2023-11-22T01:48:58;33.63;;;17.73;;
19189;SDS011;9727;50.200;19.038;2023-11-22T01:51:25;37.60;;;20.13;;
19189;SDS011;9727;50.200;19.038;2023-11-22T01:53:53;36.80;;;18.70;;
19189;SDS011;9727;50.200;19.038;2023-11-22T01:56:22;33.00;;;18.93;;
19189;SDS011;9727;50.200;19.038;2023-11-22T01:58:49;35.30;;;19.73;;
19189;SDS011;9727;50.200;19.038;2023-11-22T02:01:19;31.47;;;17.87;;
19189;SDS011;9727;50.200;19.038;2023-11-22T02:03:45;36.60;;;19.57;;
19189;SDS011;9727;50.200;19.038;2023-11-22T02:06:12;34.23;;;18.60;;
19189;SDS011;9727;50.200;19.038;2023-11-22T02:08:39;38.63;;;19.47;;
19189;SDS011;9727;50.200;19.038;2023-11-22T02:11:05;31.17;;;18.10;;
19189;SDS011;9727;50.200;19.038;2023-11-22T02:13:33;32.33;;;17.97;;
19189;SDS011;9727;50.200;19.038;2023-11-22T02:16:02;33.30;;;18.33;;
19189;SDS011;9727;50.200;19.038;2023-11-22T02:18:28;32.80;;;16.63;;
19189;SDS011;9727;50.200;19.038;2023-11-22T02:20:55;31.13;;;17.87;;
19189;SDS011;9727;50.200;19.038;2023-11-22T02:23:23;31.73;;;18.13;;
19189;SDS011;9727;50.200;19.038;2023-11-22T02:25:50;28.53;;;17.40;;
19189;SDS011;9727;50.200;19.038;2023-11-22T02:28:16;34.13;;;18.97;;
19189;SDS011;9727;50.200;19.038;2023-11-22T02:30:45;31.87;;;17.73;;
19189;SDS011;9727;50.200;19.038;2023-11-22T02:33:12;34.73;;;18.87;;
19189;SDS011;9727;50.200;19.038;2023-11-22T02:35:39;34.17;;;19.13;;
19189;SDS011;9727;50.200;19.038;2023-11-22T02:38:07;34.43;;;19.40;;
19189;SDS011;9727;50.200;19.038;2023-11-22T02:40:35;33.10;;;18.93;;
19189;SDS011;9727;50.200;19.038;2023-11-22T02:43:01;35.97;;;20.10;;
19189;SDS011;9727;50.200;19.038;2023-11-22T02:45:32;34.03;;;19.27;;
19189;SDS011;9727;50.200;19.038;2023-11-22T02:47:58;38.30;;;19.47;;
19189;SDS011;9727;50.200;19.038;2023-11-22T02:50:26;37.37;;;19.33;;
19189;SDS011;9727;50.200;19.038;2023-11-22T02:52:53;35.73;;;20.37;;
19189;SDS011;9727;50.200;19.038;2023-11-22T02:55:19;38.40;;;21.07;;
19189;SDS011;9727;50.200;19.038;2023-11-22T02:57:47;38.63;;;19.40;;
19189;SDS011;9727;50.200;19.038;2023-11-22T03:00:14;35.87;;;19.83;;
19189;SDS011;9727;50.200;19.038;2023-11-22T03:02:43;34.20;;;19.60;;
19189;SDS011;9727;50.200;19.038;2023-11-22T03:05:10;41.23;;;21.03;;
19189;SDS011;9727;50.200;19.038;2023-11-22T03:07:37;37.10;;;19.60;;
19189;SDS011;9727;50.200;19.038;2023-11-22T03:10:04;38.73;;;20.93;;
19189;SDS011;9727;50.200;19.038;2023-11-22T03:12:32;39.40;;;20.50;;
19189;SDS011;9727;50.200;19.038;2023-11-22T03:15:00;39.50;;;20.93;;
19189;SDS011;9727;50.200;19.038;2023-11-22T03:17:27;39.40;;;20.63;;
19189;SDS011;9727;50.200;19.038;2023-11-22T03:19:54;39.93;;;20.50;;
19189;SDS011;9727;50.200;19.038;2023-11-22T03:22:22;38.87;;;20.00;;
19189;SDS011;9727;50.200;19.038;2023-11-22T03:24:49;39.40;;;20.13;;
19189;SDS011;9727;50.200;19.038;2023-11-22T03:27:16;36.13;;;19.87;;
19189;SDS011;9727;50.200;19.038;2023-11-22T03:29:47;39.00;;;19.40;;
19189;SDS011;9727;50.200;19.038;2023-11-22T03:32:16;37.67;;;19.67;;
19189;SDS011;9727;50.200;19.038;2023-11-22T03:34:44;40.00;;;20.57;;
19189;SDS011;9727;50.200;19.038;2023-11-22T03:37:11;37.40;;;19.30;;
19189;SDS011;9727;50.200;19.038;2023-11-22T03:39:37;37.57;;;19.10;;
19189;SDS011;9727;50.200;19.038;2023-11-22T03:42:07;36.33;;;19.77;;
19189;SDS011;9727;50.200;19.038;2023-11-22T03:44:34;34.97;;;19.03;;
19189;SDS011;9727;50.200;19.038;2023-11-22T03:47:00;36.23;;;18.87;;
19189;SDS011;9727;50.200;19.038;2023-11-22T03:49:28;34.03;;;18.53;;
19189;SDS011;9727;50.200;19.038;2023-11-22T03:51:55;31.93;;;17.87;;
19189;SDS011;9727;50.200;19.038;2023-11-22T03:54:21;30.97;;;18.27;;
19189;SDS011;9727;50.200;19.038;2023-11-22T03:56:47;33.00;;;18.53;;
19189;SDS011;9727;50.200;19.038;2023-11-22T03:59:14;36.13;;;19.13;;
19189;SDS011;9727;50.200;19.038;2023-11-22T04:01:44;39.57;;;20.20;;
19189;SDS011;9727;50.200;19.038;2023-11-22T04:04:11;36.33;;;19.03;;
19189;SDS011;9727;50.200;19.038;2023-11-22T04:06:41;35.30;;;19.37;;
19189;SDS011;9727;50.200;19.038;2023-11-22T04:09:08;35.50;;;18.77;;
19189;SDS011;9727;50.200;19.038;2023-11-22T04:11:37;37.20;;;19.30;;
19189;SDS011;9727;50.200;19.038;2023-11-22T04:14:04;33.13;;;18.50;;
19189;SDS011;9727;50.200;19.038;2023-11-22T04:16:30;33.63;;;18.50;;
19189;SDS011;9727;50.200;19.038;2023-11-22T04:18:57;32.20;;;17.23;;
19189;SDS011;9727;50.200;19.038;2023-11-22T04:21:23;37.47;;;19.40;;
19189;SDS011;9727;50.200;19.038;2023-11-22T04:23:52;35.47;;;17.77;;
19189;SDS011;9727;50.200;19.038;2023-11-22T04:26:19;106.20;;;37.50;;
19189;SDS011;9727;50.200;19.038;2023-11-22T04:28:45;124.90;;;44.37;;
19189;SDS011;9727;50.200;19.038;2023-11-22T04:31:12;46.53;;;22.60;;
19189;SDS011;9727;50.200;19.038;2023-11-22T04:33:40;44.63;;;22.60;;
19189;SDS011;9727;50.200;19.038;2023-11-22T04:36:07;60.53;;;30.33;;
19189;SDS011;9727;50.200;19.038;2023-11-22T04:38:34;50.00;;;25.57;;
19189;SDS011;9727;50.200;19.038;2023-11-22T04:41:01;40.47;;;23.63;;
19189;SDS011;9727;50.200;19.038;2023-11-22T04:43:28;43.57;;;21.63;;
19189;SDS011;9727;50.200;19.038;2023-11-22T04:45:55;28.77;;;15.90;;
19189;SDS011;9727;50.200;19.038;2023-11-22T04:48:21;30.80;;;15.43;;
19189;SDS011;9727;50.200;19.038;2023-11-22T04:50:50;26.90;;;15.57;;
19189;SDS011;9727;50.200;19.038;2023-11-22T04:53:20;34.87;;;18.30;;
19189;SDS011;9727;50.200;19.038;2023-11-22T04:55:47;32.70;;;17.90;;
19189;SDS011;9727;50.200;19.038;2023-11-22T04:58:18;31.50;;;16.93;;
19189;SDS011;9727;50.200;19.038;2023-11-22T05:00:45;30.40;;;16.77;;
19189;SDS011;9727;50.200;19.038;2023-11-22T05:03:11;31.73;;;16.43;;
19189;SDS011;9727;50.200;19.038;2023-11-22T05:05:38;34.70;;;18.30;;
19189;SDS011;9727;50.200;19.038;2023-11-22T05:08:05;32.33;;;16.83;;
19189;SDS011;9727;50.200;19.038;2023-11-22T05:10:31;27.50;;;15.27;;
19189;SDS011;9727;50.200;19.038;2023-11-22T05:12:58;30.23;;;16.30;;
19189;SDS011;9727;50.200;19.038;2023-11-22T05:15:28;28.43;;;15.03;;
19189;SDS011;9727;50.200;19.038;2023-11-22T05:17:56;36.47;;;18.30;;
19189;SDS011;9727;50.200;19.038;2023-11-22T05:20:23;30.83;;;17.07;;
19189;SDS011;9727;50.200;19.038;2023-11-22T05:22:49;51.77;;;19.13;;
19189;SDS011;9727;50.200;19.038;2023-11-22T05:25:19;32.80;;;16.30;;
19189;SDS011;9727;50.200;19.038;2023-11-22T05:27:46;38.07;;;17.53;;
19189;SDS011;9727;50.200;19.038;2023-11-22T05:30:19;30.33;;;15.77;;
19189;SDS011;9727;50.200;19.038;2023-11-22T05:32:48;36.33;;;16.93;;
19189;SDS011;9727;50.200;19.038;2023-11-22T05:35:16;45.40;;;20.77;;
19189;SDS011;9727;50.200;19.038;2023-11-22T05:37:45;28.57;;;15.60;;
19189;SDS011;9727;50.200;19.038;2023-11-22T05:40:11;34.40;;;16.27;;
19189;SDS011;9727;50.200;19.038;2023-11-22T05:42:41;32.83;;;15.87;;
19189;SDS011;9727;50.200;19.038;2023-11-22T05:45:08;37.93;;;17.20;;
19189;SDS011;9727;50.200;19.038;2023-11-22T05:47:35;27.80;;;14.47;;
19189;SDS011;9727;50.200;19.038;2023-11-22T05:50:03;31.00;;;15.20;;
19189;SDS011;9727;50.200;19.038;2023-11-22T05:52:32;33.10;;;15.80;;
19189;SDS011;9727;50.200;19.038;2023-11-22T05:54:58;29.40;;;14.37;;
19189;SDS011;9727;50.200;19.038;2023-11-22T05:57:28;27.17;;;14.80;;
19189;SDS011;9727;50.200;19.038;2023-11-22T05:59:55;25.53;;;13.90;;
19189;SDS011;9727;50.200;19.038;2023-11-22T06:02:22;28.57;;;14.57;;
19189;SDS011;9727;50.200;19.038;2023-11-22T06:04:48;25.87;;;14.73;;
19189;SDS011;9727;50.200;19.038;2023-11-22T06:07:21;29.83;;;15.63;;
19189;SDS011;9727;50.200;19.038;2023-11-22T06:09:48;26.40;;;14.40;;
19189;SDS011;9727;50.200;19.038;2023-11-22T06:12:16;31.87;;;15.40;;
19189;SDS011;9727;50.200;19.038;2023-11-22T06:14:45;28.13;;;15.10;;
19189;SDS011;9727;50.200;19.038;2023-11-22T06:17:12;32.40;;;14.60;;
19189;SDS011;9727;50.200;19.038;2023-11-22T06:19:39;32.70;;;15.33;;
19189;SDS011;9727;50.200;19.038;2023-11-22T06:22:06;29.10;;;15.40;;
19189;SDS011;9727;50.200;19.038;2023-11-22T06:24:36;28.50;;;16.17;;
19189;SDS011;9727;50.200;19.038;2023-11-22T06:27:03;25.53;;;14.33;;
19189;SDS011;9727;50.200;19.038;2023-11-22T06:29:30;27.03;;;14.60;;
19189;SDS011;9727;50.200;19.038;2023-11-22T06:31:57;28.23;;;15.07;;
19189;SDS011;9727;50.200;19.038;2023-11-22T06:34:24;27.10;;;15.53;;
19189;SDS011;9727;50.200;19.038;2023-11-22T06:36:51;33.27;;;16.17;;
19189;SDS011;9727;50.200;19.038;2023-11-22T06:39:19;29.90;;;16.03;;
19189;SDS011;9727;50.200;19.038;2023-11-22T06:41:49;34.50;;;18.07;;
19189;SDS011;9727;50.200;19.038;2023-11-22T06:44:19;32.37;;;16.97;;
19189;SDS011;9727;50.200;19.038;2023-11-22T06:46:45;31.70;;;16.67;;
19189;SDS011;9727;50.200;19.038;2023-11-22T06:49:13;42.90;;;17.80;;
19189;SDS011;9727;50.200;19.038;2023-11-22T06:51:39;41.67;;;18.23;;
19189;SDS011;9727;50.200;19.038;2023-11-22T06:54:07;37.70;;;18.10;;
19189;SDS011;9727;50.200;19.038;2023-11-22T06:56:39;29.17;;;15.57;;
19189;SDS011;9727;50.200;19.038;2023-11-22T06:59:08;30.87;;;17.77;;
19189;SDS011;9727;50.200;19.038;2023-11-22T07:01:34;25.20;;;14.40;;
19189;SDS011;9727;50.200;19.038;2023-11-22T07:04:01;25.97;;;15.13;;
19189;SDS011;9727;50.200;19.038;2023-11-22T07:06:29;33.17;;;16.27;;
19189;SDS011;9727;50.200;19.038;2023-11-22T07:08:56;36.07;;;16.63;;
19189;SDS011;9727;50.200;19.038;2023-11-22T07:11:23;29.53;;;15.67;;
19189;SDS011;9727;50.200;19.038;2023-11-22T07:13:50;25.80;;;14.70;;
19189;SDS011;9727;50.200;19.038;2023-11-22T07:16:20;29.63;;;15.50;;
19189;SDS011;9727;50.200;19.038;2023-11-22T07:18:47;31.37;;;17.00;;
19189;SDS011;9727;50.200;19.038;2023-11-22T07:21:14;29.23;;;14.90;;
19189;SDS011;9727;50.200;19.038;2023-11-22T07:23:41;32.30;;;17.57;;
19189;SDS011;9727;50.200;19.038;2023-11-22T07:26:10;28.10;;;16.27;;
19189;SDS011;9727;50.200;19.038;2023-11-22T07:28:39;31.73;;;15.80;;
19189;SDS011;9727;50.200;19.038;2023-11-22T07:31:14;30.93;;;16.93;;
19189;SDS011;9727;50.200;19.038;2023-11-22T07:33:43;31.90;;;16.20;;
19189;SDS011;9727;50.200;19.038;2023-11-22T07:36:10;34.43;;;16.00;;
19189;SDS011;9727;50.200;19.038;2023-11-22T07:38:39;31.33;;;16.17;;
19189;SDS011;9727;50.200;19.038;2023-11-22T07:41:06;35.00;;;18.30;;
19189;SDS011;9727;50.200;19.038;2023-11-22T07:43:33;31.07;;;17.50;;
19189;SDS011;9727;50.200;19.038;2023-11-22T07:45:59;33.77;;;18.03;;
19189;SDS011;9727;50.200;19.038;2023-11-22T07:48:26;32.13;;;18.47;;
19189;SDS011;9727;50.200;19.038;2023-11-22T07:50:55;31.23;;;18.33;;
19189;SDS011;9727;50.200;19.038;2023-11-22T07:53:24;33.53;;;17.97;;
19189;SDS011;9727;50.200;19.038;2023-11-22T07:55:55;38.40;;;18.83;;
19189;SDS011;9727;50.200;19.038;2023-11-22T07:58:24;42.23;;;19.33;;
19189;SDS011;9727;50.200;19.038;2023-11-22T08:00:50;44.07;;;21.90;;
19189;SDS011;9727;50.200;19.038;2023-11-22T08:03:20;31.00;;;16.93;;
19189;SDS011;9727;50.200;19.038;2023-11-22T08:05:50;30.70;;;17.20;;
19189;SDS011;9727;50.200;19.038;2023-11-22T08:08:20;36.23;;;20.00;;
19189;SDS011;9727;50.200;19.038;2023-11-22T08:10:47;41.30;;;21.73;;
19189;SDS011;9727;50.200;19.038;2023-11-22T08:13:14;36.00;;;20.60;;
19189;SDS011;9727;50.200;19.038;2023-11-22T08:15:41;38.20;;;20.27;;
19189;SDS011;9727;50.200;19.038;2023-11-22T08:18:07;27.70;;;16.83;;
19189;SDS011;9727;50.200;19.038;2023-11-22T08:20:35;36.20;;;18.87;;
19189;SDS011;9727;50.200;19.038;2023-11-22T08:23:03;33.43;;;18.33;;
19189;SDS011;9727;50.200;19.038;2023-11-22T08:25:32;38.30;;;18.97;;
19189;SDS011;9727;50.200;19.038;2023-11-22T08:27:59;38.70;;;20.17;;
19189;SDS011;9727;50.200;19.038;2023-11-22T08:30:26;38.87;;;21.10;;
19189;SDS011;9727;50.200;19.038;2023-11-22T08:32:53;37.73;;;19.47;;
19189;SDS011;9727;50.200;19.038;2023-11-22T08:35:20;36.90;;;20.17;;
19189;SDS011;9727;50.200;19.038;2023-11-22T08:37:48;35.23;;;19.40;;
19189;SDS011;9727;50.200;19.038;2023-11-22T08:40:23;31.83;;;18.43;;
19189;SDS011;9727;50.200;19.038;2023-11-22T08:42:52;32.10;;;17.27;;
19189;SDS011;9727;50.200;19.038;2023-11-22T08:45:19;30.07;;;15.90;;
19189;SDS011;9727;50.200;19.038;2023-11-22T08:47:45;28.83;;;14.53;;
19189;SDS011;9727;50.200;19.038;2023-11-22T08:50:12;28.50;;;15.47;;
19189;SDS011;9727;50.200;19.038;2023-11-22T08:52:41;34.07;;;16.63;;
19189;SDS011;9727;50.200;19.038;2023-11-22T08:55:10;29.13;;;16.57;;
19189;SDS011;9727;50.200;19.038;2023-11-22T08:57:38;28.63;;;16.23;;
19189;SDS011;9727;50.200;19.038;2023-11-22T09:00:07;29.30;;;16.20;;
19189;SDS011;9727;50.200;19.038;2023-11-22T09:02:36;24.57;;;14.13;;
19189;SDS011;9727;50.200;19.038;2023-11-22T09:05:02;26.87;;;14.73;;
19189;SDS011;9727;50.200;19.038;2023-11-22T09:07:31;30.20;;;16.63;;
19189;SDS011;9727;50.200;19.038;2023-11-22T09:09:58;28.90;;;14.70;;
19189;SDS011;9727;50.200;19.038;2023-11-22T09:12:25;27.50;;;15.80;;
19189;SDS011;9727;50.200;19.038;2023-11-22T09:14:52;25.57;;;14.67;;
19189;SDS011;9727;50.200;19.038;2023-11-22T09:17:20;26.43;;;15.47;;
19189;SDS011;9727;50.200;19.038;2023-11-22T09:19:47;28.53;;;14.93;;
19189;SDS011;9727;50.200;19.038;2023-11-22T09:22:21;25.27;;;15.13;;
19189;SDS011;9727;50.200;19.038;2023-11-22T09:24:47;22.07;;;12.60;;
19189;SDS011;9727;50.200;19.038;2023-11-22T09:27:14;27.03;;;13.97;;
19189;SDS011;9727;50.200;19.038;2023-11-22T09:29:43;24.43;;;14.30;;
19189;SDS011;9727;50.200;19.038;2023-11-22T09:32:10;24.60;;;14.10;;
19189;SDS011;9727;50.200;19.038;2023-11-22T09:34:39;25.67;;;14.47;;
19189;SDS011;9727;50.200;19.038;2023-11-22T09:37:06;25.13;;;13.87;;
19189;SDS011;9727;50.200;19.038;2023-11-22T09:39:33;22.13;;;13.03;;
19189;SDS011;9727;50.200;19.038;2023-11-22T09:42:01;27.47;;;14.43;;
19189;SDS011;9727;50.200;19.038;2023-11-22T09:44:31;26.07;;;13.93;;
19189;SDS011;9727;50.200;19.038;2023-11-22T09:46:58;23.33;;;13.60;;
19189;SDS011;9727;50.200;19.038;2023-11-22T09:49:25;21.00;;;12.63;;
19189;SDS011;9727;50.200;19.038;2023-11-22T09:51:56;26.43;;;12.67;;
19189;SDS011;9727;50.200;19.038;2023-11-22T09:54:24;24.73;;;12.27;;
19189;SDS011;9727;50.200;19.038;2023-11-22T09:56:56;22.20;;;11.83;;
19189;SDS011;9727;50.200;19.038;2023-11-22T09:59:26;22.07;;;11.77;;
19189;SDS011;9727;50.200;19.038;2023-11-22T10:01:53;21.67;;;12.60;;
19189;SDS011;9727;50.200;19.038;2023-11-22T10:04:20;22.67;;;12.60;;
19189;SDS011;9727;50.200;19.038;2023-11-22T10:06:57;27.00;;;13.00;;
19189;SDS011;9727;50.200;19.038;2023-11-22T10:09:24;23.30;;;12.53;;
19189;SDS011;9727;50.200;19.038;2023-11-22T10:11:52;21.57;;;11.40;;
19189;SDS011;9727;50.200;19.038;2023-11-22T10:14:22;21.90;;;11.90;;
19189;SDS011;9727;50.200;19.038;2023-11-22T10:16:57;17.93;;;10.23;;
19189;SDS011;9727;50.200;19.038;2023-11-22T10:19:24;19.43;;;9.57;;
19189;SDS011;9727;50.200;19.038;2023-11-22T10:22:03;17.47;;;9.93;;
19189;SDS011;9727;50.200;19.038;2023-11-22T10:24:30;19.43;;;9.80;;
19189;SDS011;9727;50.200;19.038;2023-11-22T10:26:57;19.00;;;10.77;;
19189;SDS011;9727;50.200;19.038;2023-11-22T10:29:24;18.70;;;9.50;;
19189;SDS011;9727;50.200;19.038;2023-11-22T10:31:51;18.43;;;9.17;;
19189;SDS011;9727;50.200;19.038;2023-11-22T10:34:21;19.80;;;10.63;;
19189;SDS011;9727;50.200;19.038;2023-11-22T10:36:48;19.17;;;10.00;;
19189;SDS011;9727;50.200;19.038;2023-11-22T10:39:20;19.00;;;9.47;;
19189;SDS011;9727;50.200;19.038;2023-11-22T10:41:47;16.37;;;9.60;;
19189;SDS011;9727;50.200;19.038;2023-11-22T10:44:19;18.03;;;9.33;;
19189;SDS011;9727;50.200;19.038;2023-11-22T10:46:47;13.80;;;8.27;;
19189;SDS011;9727;50.200;19.038;2023-11-22T10:49:14;14.37;;;8.77;;
19189;SDS011;9727;50.200;19.038;2023-11-22T10:51:42;19.03;;;10.17;;
19189;SDS011;9727;50.200;19.038;2023-11-22T10:54:21;18.73;;;9.97;;
19189;SDS011;9727;50.200;19.038;2023-11-22T10:56:54;20.40;;;9.67;;
19189;SDS011;9727;50.200;19.038;2023-11-22T10:59:22;18.70;;;9.47;;
19189;SDS011;9727;50.200;19.038;2023-11-22T11:01:49;15.20;;;8.80;;
19189;SDS011;9727;50.200;19.038;2023-11-22T11:04:24;18.97;;;9.53;;
19189;SDS011;9727;50.200;19.038;2023-11-22T11:06:54;29.47;;;13.90;;
19189;SDS011;9727;50.200;19.038;2023-11-22T11:09:23;33.27;;;15.83;;
19189;SDS011;9727;50.200;19.038;2023-11-22T11:11:57;28.30;;;15.17;;
19189;SDS011;9727;50.200;19.038;2023-11-22T11:14:23;22.20;;;11.03;;
19189;SDS011;9727;50.200;19.038;2023-11-22T11:16:51;20.67;;;11.30;;
19189;SDS011;9727;50.200;19.038;2023-11-22T11:19:19;21.97;;;11.87;;
19189;SDS011;9727;50.200;19.038;2023-11-22T11:21:47;19.97;;;12.27;;
19189;SDS011;9727;50.200;19.038;2023-11-22T11:24:20;18.67;;;10.73;;
19189;SDS011;9727;50.200;19.038;2023-11-22T11:26:49;19.77;;;10.83;;
19189;SDS011;9727;50.200;19.038;2023-11-22T11:29:30;14.40;;;8.43;;
19189;SDS011;9727;50.200;19.038;2023-11-22T11:31:57;11.93;;;7.73;;
19189;SDS011;9727;50.200;19.038;2023-11-22T11:34:24;18.87;;;8.70;;
19189;SDS011;9727;50.200;19.038;2023-11-22T11:36:52;21.73;;;10.83;;
19189;SDS011;9727;50.200;19.038;2023-11-22T11:39:21;18.23;;;9.60;;
19189;SDS011;9727;50.200;19.038;2023-11-22T11:41:53;15.10;;;8.50;;
19189;SDS011;9727;50.200;19.038;2023-11-22T11:44:33;13.60;;;8.40;;
19189;SDS011;9727;50.200;19.038;2023-11-22T11:47:03;14.50;;;7.97;;
19189;SDS011;9727;50.200;19.038;2023-11-22T11:49:36;17.17;;;8.57;;
19189;SDS011;9727;50.200;19.038;2023-11-22T11:52:03;20.97;;;10.40;;
19189;SDS011;9727;50.200;19.038;2023-11-22T11:54:31;18.03;;;8.77;;
19189;SDS011;9727;50.200;19.038;2023-11-22T11:56:59;17.37;;;9.23;;
19189;SDS011;9727;50.200;19.038;2023-11-22T11:59:26;16.40;;;9.43;;
19189;SDS011;9727;50.200;19.038;2023-11-22T12:01:54;16.30;;;9.33;;
19189;SDS011;9727;50.200;19.038;2023-11-22T12:04:22;15.23;;;8.83;;
19189;SDS011;9727;50.200;19.038;2023-11-22T12:06:49;20.57;;;10.70;;
19189;SDS011;9727;50.200;19.038;2023-11-22T12:09:21;20.57;;;9.90;;
19189;SDS011;9727;50.200;19.038;2023-11-22T12:11:49;17.60;;;8.87;;
19189;SDS011;9727;50.200;19.038;2023-11-22T12:14:20;15.30;;;8.57;;
19189;SDS011;9727;50.200;19.038;2023-11-22T12:16:47;16.33;;;7.67;;
19189;SDS011;9727;50.200;19.038;2023-11-22T12:19:20;16.17;;;9.77;;
19189;SDS011;9727;50.200;19.038;2023-11-22T12:21:47;19.00;;;11.00;;
19189;SDS011;9727;50.200;19.038;2023-11-22T12:24:14;23.20;;;12.07;;
19189;SDS011;9727;50.200;19.038;2023-11-22T12:26:44;15.90;;;9.63;;
19189;SDS011;9727;50.200;19.038;2023-11-22T12:29:11;19.13;;;9.70;;
19189;SDS011;9727;50.200;19.038;2023-11-22T12:31:45;15.73;;;8.63;;
19189;SDS011;9727;50.200;19.038;2023-11-22T12:34:12;18.53;;;9.57;;
19189;SDS011;9727;50.200;19.038;2023-11-22T12:36:40;17.00;;;9.03;;
19189;SDS011;9727;50.200;19.038;2023-11-22T12:39:07;20.30;;;10.63;;
19189;SDS011;9727;50.200;19.038;2023-11-22T12:41:41;19.57;;;10.10;;
19189;SDS011;9727;50.200;19.038;2023-11-22T12:44:08;15.47;;;9.10;;
19189;SDS011;9727;50.200;19.038;2023-11-22T12:46:46;14.33;;;8.47;;
19189;SDS011;9727;50.200;19.038;2023-11-22T12:49:14;18.47;;;9.07;;
19189;SDS011;9727;50.200;19.038;2023-11-22T12:51:46;17.90;;;9.90;;
19189;SDS011;9727;50.200;19.038;2023-11-22T12:54:13;18.43;;;10.00;;
19189;SDS011;9727;50.200;19.038;2023-11-22T12:56:40;24.37;;;12.50;;
19189;SDS011;9727;50.200;19.038;2023-11-22T12:59:07;26.37;;;13.80;;
19189;SDS011;9727;50.200;19.038;2023-11-22T13:01:34;26.30;;;13.07;;
19189;SDS011;9727;50.200;19.038;2023-11-22T13:04:02;28.80;;;14.30;;
19189;SDS011;9727;50.200;19.038;2023-11-22T13:06:29;21.43;;;10.63;;
19189;SDS011;9727;50.200;19.038;2023-11-22T13:08:56;19.50;;;10.97;;
19189;SDS011;9727;50.200;19.038;2023-11-22T13:11:22;19.30;;;11.07;;
19189;SDS011;9727;50.200;19.038;2023-11-22T13:13:52;21.83;;;11.97;;
19189;SDS011;9727;50.200;19.038;2023-11-22T13:16:18;22.93;;;12.50;;
19189;SDS011;9727;50.200;19.038;2023-11-22T13:18:46;24.73;;;13.90;;
19189;SDS011;9727;50.200;19.038;2023-11-22T13:21:17;24.17;;;12.50;;
19189;SDS011;9727;50.200;19.038;2023-11-22T13:23:47;30.13;;;16.07;;
19189;SDS011;9727;50.200;19.038;2023-11-22T13:26:14;21.90;;;12.50;;
19189;SDS011;9727;50.200;19.038;2023-11-22T13:28:47;22.33;;;11.27;;
19189;SDS011;9727;50.200;19.038;2023-11-22T13:31:21;18.07;;;10.10;;
19189;SDS011;9727;50.200;19.038;2023-11-22T13:33:49;20.93;;;11.30;;
19189;SDS011;9727;50.200;19.038;2023-11-22T13:36:18;30.23;;;13.67;;
19189;SDS011;9727;50.200;19.038;2023-11-22T13:38:45;35.13;;;16.77;;
19189;SDS011;9727;50.200;19.038;2023-11-22T13:41:16;27.07;;;14.23;;
19189;SDS011;9727;50.200;19.038;2023-11-22T13:43:49;20.13;;;10.40;;
19189;SDS011;9727;50.200;19.038;2023-11-22T13:46:19;25.00;;;12.53;;
19189;SDS011;9727;50.200;19.038;2023-11-22T13:48:46;26.27;;;13.87;;
19189;SDS011;9727;50.200;19.038;2023-11-22T13:51:12;21.07;;;13.03;;
19189;SDS011;9727;50.200;19.038;2023-11-22T13:53:40;30.47;;;14.77;;
19189;SDS011;9727;50.200;19.038;2023-11-22T13:56:09;67.63;;;27.93;;
19189;SDS011;9727;50.200;19.038;2023-11-22T13:58:36;43.80;;;21.10;;
19189;SDS011;9727;50.200;19.038;2023-11-22T14:01:03;24.43;;;13.43;;
19189;SDS011;9727;50.200;19.038;2023-11-22T14:03:31;38.27;;;18.93;;
19189;SDS011;9727;50.200;19.038;2023-11-22T14:05:58;25.17;;;14.37;;
19189;SDS011;9727;50.200;19.038;2023-11-22T14:08:25;23.83;;;13.33;;
19189;SDS011;9727;50.200;19.038;2023-11-22T14:10:53;23.93;;;13.87;;
19189;SDS011;9727;50.200;19.038;2023-11-22T14:13:20;22.47;;;13.13;;
19189;SDS011;9727;50.200;19.038;2023-11-22T14:15:49;22.37;;;13.00;;
19189;SDS011;9727;50.200;19.038;2023-11-22T14:18:23;23.07;;;13.23;;
19189;SDS011;9727;50.200;19.038;2023-11-22T14:20:51;22.33;;;13.00;;
19189;SDS011;9727;50.200;19.038;2023-11-22T14:23:18;21.23;;;11.90;;
19189;SDS011;9727;50.200;19.038;2023-11-22T14:25:46;21.27;;;11.93;;
19189;SDS011;9727;50.200;19.038;2023-11-22T14:28:14;23.63;;;13.50;;